Time;durP1;ratioP1;P1;durP2;ratioP2;P2;SDS_P1;SDS_P2;PMS_P1;PMS_P2;Temp;Humidity;BMP_temperature;BMP_pressure;BME280_temperature;BME280_humidity;BME280_pressure;Samples;Min_cycle;Max_cycle;Signal;HPM_P1;HPM_P2
2021/10/15 00:02:21;;;;;;;6.00;5.17;;;5.10;99.90;;;;;;5017576;28;20171;-78
2021/10/15 00:04:47;;;;;;;5.77;5.17;;;5.10;99.90;;;;;;5018589;28;20178;-78
2021/10/15 00:07:12;;;;;;;5.17;4.77;;;5.00;99.90;;;;;;5020244;28;20197;-78
2021/10/15 00:09:38;;;;;;;9.20;6.07;;;5.00;99.90;;;;;;5018541;28;20177;-78
2021/10/15 00:12:04;;;;;;;4.70;4.30;;;5.00;99.90;;;;;;5019350;28;20175;-78
2021/10/15 00:14:30;;;;;;;6.53;5.20;;;5.00;99.90;;;;;;5018942;28;20213;-78
2021/10/15 00:16:55;;;;;;;8.03;4.87;;;5.00;99.90;;;;;;5019582;28;20225;-78
2021/10/15 00:19:21;;;;;;;5.80;5.00;;;5.00;99.90;;;;;;5019644;28;20177;-78
2021/10/15 00:21:47;;;;;;;5.47;4.97;;;5.00;99.90;;;;;;5018697;28;20163;-78
2021/10/15 00:24:13;;;;;;;6.10;5.07;;;5.00;99.90;;;;;;5019401;28;20641;-78
2021/10/15 00:26:38;;;;;;;9.83;5.33;;;5.00;99.90;;;;;;5019355;28;20574;-77
2021/10/15 00:29:05;;;;;;;9.13;5.20;;;5.00;99.90;;;;;;5018099;28;20183;-78
2021/10/15 00:31:32;;;;;;;8.13;5.57;;;4.90;99.90;;;;;;5019000;28;20168;-77
2021/10/15 00:33:57;;;;;;;7.17;4.67;;;4.80;99.90;;;;;;5020276;28;20268;-77
2021/10/15 00:36:23;;;;;;;6.77;5.10;;;4.80;99.90;;;;;;5016669;28;20633;-78
2021/10/15 00:38:48;;;;;;;6.67;5.00;;;4.80;99.90;;;;;;5016459;28;20193;-77
2021/10/15 00:41:14;;;;;;;6.27;5.20;;;4.80;99.90;;;;;;5017127;28;20183;-78
2021/10/15 00:44:03;;;;;;;6.10;5.37;;;4.80;99.90;;;;;;5018737;28;20186;-77
2021/10/15 00:46:29;;;;;;;6.13;5.20;;;4.80;99.90;;;;;;5016808;28;20171;-78
2021/10/15 00:48:55;;;;;;;5.33;4.83;;;4.80;99.90;;;;;;5038478;28;20203;-78
2021/10/15 00:51:20;;;;;;;5.43;4.93;;;4.70;99.90;;;;;;5024769;28;20213;-77
2021/10/15 00:53:47;;;;;;;7.10;5.30;;;4.70;99.90;;;;;;5023596;28;20197;-78
2021/10/15 00:56:13;;;;;;;6.10;5.03;;;4.70;99.90;;;;;;5023903;28;20171;-78
2021/10/15 00:58:39;;;;;;;5.17;4.60;;;4.70;99.90;;;;;;5021647;28;20282;-77
2021/10/15 01:01:04;;;;;;;5.83;5.17;;;4.60;99.90;;;;;;5020770;28;20569;-77
2021/10/15 01:03:30;;;;;;;5.20;4.70;;;4.60;99.90;;;;;;5023496;28;20180;-78
2021/10/15 01:05:56;;;;;;;5.73;4.70;;;4.50;99.90;;;;;;5024547;28;20655;-77
2021/10/15 01:08:21;;;;;;;7.43;5.17;;;4.50;99.90;;;;;;5022223;28;20205;-77
2021/10/15 01:10:48;;;;;;;5.67;4.67;;;4.50;99.90;;;;;;5021442;28;20179;-77
2021/10/15 01:13:15;;;;;;;5.77;4.73;;;4.50;99.90;;;;;;5023234;28;20190;-77
2021/10/15 01:15:40;;;;;;;5.80;4.97;;;4.50;99.90;;;;;;5021491;28;20227;-77
2021/10/15 01:18:13;;;;;;;6.70;4.53;;;4.50;99.90;;;;;;5038537;28;20186;-77
2021/10/15 01:20:40;;;;;;;6.33;4.97;;;4.60;99.90;;;;;;5022333;28;20174;-77
2021/10/15 01:23:05;;;;;;;5.87;4.80;;;4.60;99.90;;;;;;5022347;28;20237;-77
2021/10/15 01:25:34;;;;;;;8.33;4.80;;;4.60;99.90;;;;;;5019914;28;20584;-77
2021/10/15 01:28:00;;;;;;;5.30;4.80;;;4.60;99.90;;;;;;5022393;28;20195;-77
2021/10/15 01:30:26;;;;;;;6.60;5.20;;;4.50;99.90;;;;;;5023331;28;20740;-78
2021/10/15 01:32:52;;;;;;;6.50;4.70;;;4.50;99.90;;;;;;5027963;28;20204;-77
2021/10/15 01:35:17;;;;;;;6.37;5.03;;;4.40;99.90;;;;;;5019779;28;20169;-77
2021/10/15 01:37:43;;;;;;;5.93;5.00;;;4.40;99.90;;;;;;5034875;28;20526;-77
2021/10/15 01:40:10;;;;;;;6.07;5.27;;;4.40;99.90;;;;;;5018566;28;20176;-77
2021/10/15 01:42:54;;;;;;;8.57;4.63;;;4.40;99.90;;;;;;5018106;28;20174;-77
2021/10/15 01:45:20;;;;;;;5.47;4.97;;;4.40;99.90;;;;;;5021424;28;20168;-77
2021/10/15 01:47:46;;;;;;;6.47;4.43;;;4.30;99.90;;;;;;5047793;22;20297;-77
2021/10/15 01:50:12;;;;;;;6.40;5.23;;;4.30;99.90;;;;;;5036421;28;20255;-77
2021/10/15 01:52:38;;;;;;;5.33;4.53;;;4.30;99.90;;;;;;5034328;28;20377;-77
2021/10/15 01:55:08;;;;;;;5.27;4.77;;;4.30;99.90;;;;;;5035042;28;20169;-77
2021/10/15 01:57:34;;;;;;;5.40;4.90;;;4.10;99.90;;;;;;5030751;28;20196;-77
2021/10/15 01:59:59;;;;;;;5.10;4.70;;;4.00;99.90;;;;;;5034521;28;20165;-77
2021/10/15 02:02:25;;;;;;;6.97;5.07;;;4.10;99.90;;;;;;5033838;28;20576;-77
2021/10/15 02:04:52;;;;;;;5.70;5.20;;;4.20;99.90;;;;;;5035169;28;20554;-77
2021/10/15 02:07:18;;;;;;;5.40;4.77;;;4.20;99.90;;;;;;5037102;28;20667;-77
2021/10/15 02:09:44;;;;;;;5.47;4.97;;;4.20;99.90;;;;;;5036415;28;20173;-77
2021/10/15 02:12:10;;;;;;;6.10;5.27;;;4.20;99.90;;;;;;5036011;28;20164;-77
2021/10/15 02:14:36;;;;;;;6.07;4.37;;;4.40;99.90;;;;;;5036021;28;20212;-77
2021/10/15 02:17:02;;;;;;;7.73;4.90;;;4.20;99.90;;;;;;5036884;28;20174;-77
2021/10/15 02:19:28;;;;;;;5.67;4.97;;;4.20;99.90;;;;;;5036318;28;20193;-77
2021/10/15 02:21:53;;;;;;;5.40;4.57;;;4.20;99.90;;;;;;5037475;28;20177;-77
2021/10/15 02:24:19;;;;;;;5.60;4.97;;;4.10;99.90;;;;;;5036536;28;20251;-78
2021/10/15 02:26:45;;;;;;;4.87;4.47;;;4.10;99.90;;;;;;5037341;28;20172;-77
2021/10/15 02:29:10;;;;;;;4.90;4.40;;;4.00;99.90;;;;;;5035409;28;20251;-77
2021/10/15 02:31:36;;;;;;;6.07;4.97;;;4.00;99.90;;;;;;5036955;28;20227;-77
2021/10/15 02:34:02;;;;;;;6.13;4.93;;;4.00;99.90;;;;;;5036524;28;20243;-77
2021/10/15 02:36:28;;;;;;;4.90;4.40;;;4.10;99.90;;;;;;5036110;28;20168;-78
2021/10/15 02:38:53;;;;;;;5.37;4.60;;;4.10;99.90;;;;;;5035247;28;20223;-77
2021/10/15 02:41:19;;;;;;;4.93;4.43;;;4.10;99.90;;;;;;5036856;28;20160;-78
2021/10/15 02:43:45;;;;;;;5.13;4.50;;;4.00;99.90;;;;;;5035915;28;20628;-78
2021/10/15 02:46:12;;;;;;;5.60;4.47;;;4.10;99.90;;;;;;5037322;28;20185;-79
2021/10/15 02:48:37;;;;;;;7.07;4.70;;;4.00;99.90;;;;;;5035265;28;20213;-78
2021/10/15 02:51:03;;;;;;;7.77;4.67;;;4.00;99.90;;;;;;5035612;28;20187;-77
2021/10/15 02:53:29;;;;;;;4.67;4.27;;;4.00;99.90;;;;;;5033971;28;20183;-77
2021/10/15 02:55:54;;;;;;;6.30;4.67;;;4.00;99.90;;;;;;5034611;28;20522;-77
2021/10/15 02:58:20;;;;;;;4.63;4.23;;;4.00;99.90;;;;;;5034058;28;20192;-77
2021/10/15 03:00:46;;;;;;;5.50;4.83;;;3.90;99.90;;;;;;5035585;28;20221;-77
2021/10/15 03:03:11;;;;;;;6.30;4.83;;;3.90;99.90;;;;;;5035351;28;20185;-78
2021/10/15 03:05:37;;;;;;;5.30;4.80;;;4.00;99.90;;;;;;5034594;28;20181;-78
2021/10/15 03:08:03;;;;;;;5.93;4.70;;;4.00;99.90;;;;;;5035554;28;20305;-78
2021/10/15 03:10:28;;;;;;;5.67;4.80;;;4.00;99.90;;;;;;5034328;28;20185;-77
2021/10/15 03:12:54;;;;;;;6.23;4.80;;;4.00;99.90;;;;;;5034364;28;20201;-77
2021/10/15 03:15:20;;;;;;;8.03;5.23;;;4.00;99.90;;;;;;5034412;28;20646;-78
2021/10/15 03:17:45;;;;;;;5.60;4.40;;;4.00;99.90;;;;;;5034136;28;20281;-77
2021/10/15 03:20:11;;;;;;;5.57;4.83;;;4.00;99.90;;;;;;5035060;28;20589;-77
2021/10/15 03:22:37;;;;;;;5.27;4.67;;;3.90;99.90;;;;;;5034873;28;20160;-78
2021/10/15 03:25:03;;;;;;;5.10;4.60;;;4.00;99.90;;;;;;5025061;28;20260;-77
2021/10/15 03:27:29;;;;;;;4.93;4.43;;;3.90;99.90;;;;;;5035659;28;20221;-77
2021/10/15 03:29:55;;;;;;;5.40;4.87;;;3.90;99.90;;;;;;5034369;28;20642;-77
2021/10/15 03:32:21;;;;;;;5.90;4.70;;;3.90;99.90;;;;;;5032901;28;20276;-77
2021/10/15 03:34:46;;;;;;;5.13;4.63;;;3.80;99.90;;;;;;5031333;28;20175;-78
2021/10/15 03:37:12;;;;;;;5.30;4.33;;;3.90;99.90;;;;;;5034290;28;20170;-77
2021/10/15 03:39:38;;;;;;;7.17;4.40;;;3.90;99.90;;;;;;5034070;28;20177;-78
2021/10/15 03:42:03;;;;;;;5.47;4.97;;;3.90;99.90;;;;;;5032955;28;20653;-77
2021/10/15 03:44:29;;;;;;;4.73;4.23;;;3.90;99.90;;;;;;5032733;28;20636;-78
2021/10/15 03:46:55;;;;;;;5.00;4.50;;;3.90;99.90;;;;;;5033304;28;20242;-77
2021/10/15 03:49:20;;;;;;;5.10;4.30;;;3.80;99.90;;;;;;5033359;28;20212;-77
2021/10/15 03:51:46;;;;;;;4.53;4.10;;;3.70;99.90;;;;;;5033408;28;20190;-77
2021/10/15 03:54:11;;;;;;;5.23;4.77;;;3.70;99.90;;;;;;5033611;28;20201;-77
2021/10/15 03:56:37;;;;;;;5.30;4.50;;;3.70;99.90;;;;;;5030927;28;20188;-78
2021/10/15 03:59:03;;;;;;;7.53;4.77;;;3.70;99.90;;;;;;5032756;28;20593;-78
2021/10/15 04:01:29;;;;;;;5.50;5.00;;;3.60;99.90;;;;;;5028211;28;20229;-77
2021/10/15 04:03:54;;;;;;;7.23;5.40;;;3.70;99.90;;;;;;5027715;28;20184;-76
2021/10/15 04:06:20;;;;;;;5.83;4.87;;;3.60;99.90;;;;;;5030727;28;20183;-77
2021/10/15 04:08:45;;;;;;;5.77;4.50;;;3.60;99.90;;;;;;5031245;28;20236;-77
2021/10/15 04:11:11;;;;;;;5.13;4.63;;;3.60;99.90;;;;;;5032780;28;20264;-77
2021/10/15 04:13:37;;;;;;;4.47;4.07;;;3.50;99.90;;;;;;5032381;28;20199;-77
2021/10/15 04:16:03;;;;;;;4.87;4.43;;;3.50;99.90;;;;;;5031803;28;20179;-77
2021/10/15 04:18:29;;;;;;;5.33;4.70;;;3.50;99.90;;;;;;5033825;28;20564;-77
2021/10/15 04:20:55;;;;;;;4.83;4.33;;;3.50;99.90;;;;;;5029661;28;20179;-77
2021/10/15 04:23:21;;;;;;;5.00;4.50;;;3.50;99.90;;;;;;5034360;28;20177;-77
2021/10/15 04:25:47;;;;;;;5.10;4.50;;;3.50;99.90;;;;;;5035238;28;20260;-77
2021/10/15 04:28:13;;;;;;;5.30;4.63;;;3.40;99.90;;;;;;5031593;28;20204;-77
2021/10/15 04:30:38;;;;;;;5.07;4.57;;;3.40;99.90;;;;;;5035547;28;20763;-77
2021/10/15 04:33:04;;;;;;;4.63;4.23;;;3.50;99.90;;;;;;5036075;28;20210;-77
2021/10/15 04:35:30;;;;;;;4.53;4.13;;;3.50;99.90;;;;;;5034633;28;20176;-77
2021/10/15 04:37:55;;;;;;;5.00;4.50;;;3.50;99.90;;;;;;5034743;28;20208;-77
2021/10/15 04:40:21;;;;;;;5.13;4.37;;;3.60;99.90;;;;;;5035789;28;20183;-76
2021/10/15 04:42:47;;;;;;;5.80;4.57;;;3.60;99.90;;;;;;5034595;28;20226;-77
2021/10/15 04:45:12;;;;;;;5.20;4.43;;;3.60;99.90;;;;;;5036280;28;20213;-77
2021/10/15 04:47:38;;;;;;;4.20;3.80;;;3.60;99.90;;;;;;5036526;28;20310;-77
2021/10/15 04:50:05;;;;;;;6.30;4.60;;;3.60;99.90;;;;;;5036304;28;20730;-77
2021/10/15 04:52:32;;;;;;;4.90;4.43;;;3.50;99.90;;;;;;5036097;28;20594;-75
2021/10/15 04:54:57;;;;;;;5.03;4.53;;;3.50;99.90;;;;;;5038966;28;20172;-78
2021/10/15 04:57:24;;;;;;;5.97;5.10;;;3.50;99.90;;;;;;5036066;28;20197;-78
2021/10/15 04:59:50;;;;;;;5.00;4.60;;;3.50;99.90;;;;;;5037321;28;20253;-77
2021/10/15 05:02:15;;;;;;;5.47;4.60;;;3.50;99.90;;;;;;5036821;28;20595;-77
2021/10/15 05:04:41;;;;;;;6.57;4.30;;;3.50;99.90;;;;;;5036649;28;20210;-78
2021/10/15 05:07:07;;;;;;;5.20;4.50;;;3.50;99.90;;;;;;5036447;28;20203;-77
2021/10/15 05:09:33;;;;;;;4.97;4.53;;;3.60;99.90;;;;;;5037000;28;20189;-77
2021/10/15 05:12:03;;;;;;;4.97;4.47;;;3.50;99.90;;;;;;5037712;28;20199;-77
2021/10/15 05:14:30;;;;;;;4.93;4.43;;;3.50;99.90;;;;;;5037404;28;20247;-78
2021/10/15 05:16:56;;;;;;;4.83;4.30;;;3.50;99.90;;;;;;5037922;28;20186;-77
2021/10/15 05:19:21;;;;;;;5.93;4.47;;;3.50;99.90;;;;;;5036684;28;20199;-77
2021/10/15 05:21:47;;;;;;;4.80;4.40;;;3.60;99.90;;;;;;5037218;28;20221;-78
2021/10/15 05:24:13;;;;;;;4.23;3.83;;;3.50;99.90;;;;;;5037259;28;20183;-77
2021/10/15 05:26:38;;;;;;;5.40;4.20;;;3.50;99.90;;;;;;5035901;28;20196;-77
2021/10/15 05:29:04;;;;;;;4.70;4.30;;;3.50;99.90;;;;;;5036119;28;20707;-77
2021/10/15 05:31:30;;;;;;;4.50;4.10;;;3.50;99.90;;;;;;5035789;28;20177;-76
2021/10/15 05:33:55;;;;;;;4.33;3.93;;;3.50;99.90;;;;;;5036837;28;20208;-77
2021/10/15 05:36:21;;;;;;;6.40;5.10;;;3.40;99.90;;;;;;5037202;28;20658;-76
2021/10/15 05:38:46;;;;;;;7.93;4.37;;;3.40;99.90;;;;;;5037268;28;20280;-77
2021/10/15 05:41:13;;;;;;;4.47;4.07;;;3.40;99.90;;;;;;5037283;28;20185;-77
2021/10/15 05:43:39;;;;;;;4.80;4.33;;;3.40;99.90;;;;;;5037241;28;20684;-78
2021/10/15 05:46:05;;;;;;;5.73;5.17;;;3.40;99.90;;;;;;5035724;28;20303;-78
2021/10/15 05:48:30;;;;;;;6.27;4.67;;;3.40;99.90;;;;;;5035690;28;20580;-77
2021/10/15 05:50:56;;;;;;;5.17;4.60;;;3.40;99.90;;;;;;5036991;28;20177;-77
2021/10/15 05:53:23;;;;;;;7.07;4.67;;;3.30;99.90;;;;;;5031492;28;20681;-77
2021/10/15 05:56:18;;;;;;;5.07;4.57;;;3.30;99.90;;;;;;5035568;28;20195;-77
2021/10/15 05:58:50;;;;;;;5.00;4.50;;;3.30;99.90;;;;;;5036953;28;20192;-77
2021/10/15 06:01:27;;;;;;;5.07;4.57;;;3.30;99.90;;;;;;5036241;28;20186;-77
2021/10/15 06:04:26;;;;;;;5.00;4.50;;;3.40;99.90;;;;;;5037289;28;20170;-77
2021/10/15 06:14:56;;;;;;;5.60;5.10;;;3.40;99.90;;;;;;5036214;28;20594;-78
2021/10/15 06:17:22;;;;;;;7.83;5.73;;;3.40;99.90;;;;;;5035292;28;20258;-78
2021/10/15 06:19:54;;;;;;;6.07;5.13;;;3.40;99.90;;;;;;5034700;28;20185;-77
2021/10/15 06:22:26;;;;;;;6.90;5.50;;;3.60;99.90;;;;;;5035268;28;20187;-77
2021/10/15 06:24:52;;;;;;;6.20;5.60;;;3.50;99.90;;;;;;5035164;28;20542;-78
2021/10/15 06:27:20;;;;;;;7.93;6.10;;;3.70;99.90;;;;;;5034981;28;20186;-78
2021/10/15 06:29:46;;;;;;;8.93;6.70;;;3.70;99.90;;;;;;5035411;28;20224;-77
2021/10/15 06:32:12;;;;;;;9.27;5.50;;;3.70;99.90;;;;;;5033629;28;20184;-78
2021/10/15 06:34:38;;;;;;;7.20;6.50;;;3.80;99.90;;;;;;5035204;28;20304;-78
2021/10/15 06:37:03;;;;;;;12.23;7.70;;;3.90;99.90;;;;;;5034883;28;20179;-78
2021/10/15 06:39:29;;;;;;;9.23;7.00;;;4.00;99.90;;;;;;5033754;28;20212;-78
2021/10/15 06:41:54;;;;;;;8.03;6.43;;;4.00;99.90;;;;;;5033884;28;20623;-78
2021/10/15 06:44:20;;;;;;;9.13;6.83;;;4.00;99.90;;;;;;5033597;28;20186;-78
2021/10/15 06:46:46;;;;;;;7.63;6.10;;;4.10;99.90;;;;;;5034263;28;20192;-78
2021/10/15 06:49:11;;;;;;;7.20;6.50;;;4.10;99.90;;;;;;5033580;28;20207;-78
2021/10/15 06:51:38;;;;;;;15.67;8.97;;;4.20;99.90;;;;;;5033607;28;20181;-78
2021/10/15 06:54:03;;;;;;;8.00;6.23;;;4.20;99.90;;;;;;5035049;28;20227;-78
2021/10/15 06:56:29;;;;;;;7.43;5.77;;;4.40;99.90;;;;;;5036364;28;20202;-78
2021/10/15 06:58:55;;;;;;;7.97;6.97;;;4.30;99.90;;;;;;5034858;28;20189;-77
2021/10/15 07:01:21;;;;;;;7.53;6.80;;;4.30;99.90;;;;;;5034643;28;20594;-77
2021/10/15 07:03:47;;;;;;;7.07;6.20;;;4.30;99.90;;;;;;5034297;28;20212;-78
2021/10/15 07:06:12;;;;;;;7.67;6.53;;;4.30;99.90;;;;;;5034807;28;20186;-78
2021/10/15 07:08:38;;;;;;;8.67;6.23;;;4.40;99.90;;;;;;5034586;28;20208;-78
2021/10/15 07:11:05;;;;;;;7.80;7.00;;;4.40;99.90;;;;;;5036111;28;20189;-78
2021/10/15 07:13:31;;;;;;;9.40;7.73;;;4.40;99.90;;;;;;5035485;28;20198;-78
2021/10/15 07:15:57;;;;;;;8.53;6.67;;;4.40;99.90;;;;;;5034261;28;20181;-78
2021/10/15 07:18:23;;;;;;;11.63;7.40;;;4.50;99.90;;;;;;5035650;28;20190;-77
2021/10/15 07:20:49;;;;;;;7.77;6.77;;;4.60;99.90;;;;;;5035319;28;20178;-78
2021/10/15 07:23:16;;;;;;;7.83;7.03;;;4.70;99.90;;;;;;5035299;28;20316;-78
2021/10/15 07:25:42;;;;;;;8.80;7.47;;;4.70;99.90;;;;;;5033217;28;20178;-78
2021/10/15 07:28:12;;;;;;;10.73;8.13;;;4.80;99.90;;;;;;5034446;28;20201;-78
2021/10/15 07:30:38;;;;;;;9.13;8.20;;;4.90;99.90;;;;;;5034780;28;20177;-77
2021/10/15 07:33:03;;;;;;;24.73;15.70;;;4.90;99.90;;;;;;5034331;28;20508;-78
2021/10/15 07:35:29;;;;;;;14.30;9.93;;;5.00;99.90;;;;;;5032566;28;20272;-78
2021/10/15 07:37:55;;;;;;;21.13;13.23;;;5.00;99.90;;;;;;5034089;28;20729;-77
2021/10/15 07:40:20;;;;;;;13.97;9.70;;;5.10;99.90;;;;;;5032812;28;20188;-78
2021/10/15 07:42:46;;;;;;;15.60;10.13;;;5.10;99.90;;;;;;5034341;28;20174;-78
2021/10/15 07:45:12;;;;;;;16.47;10.77;;;5.10;99.90;;;;;;5037678;28;20563;-78
2021/10/15 07:47:44;;;;;;;16.40;10.20;;;5.20;99.90;;;;;;5036654;28;20708;-76
2021/10/15 07:50:10;;;;;;;17.57;10.77;;;5.20;99.90;;;;;;5036030;28;20211;-78
2021/10/15 07:52:39;;;;;;;26.60;16.27;;;5.30;99.90;;;;;;5029512;28;20217;-78
2021/10/15 07:55:06;;;;;;;19.50;13.27;;;5.50;99.90;;;;;;5032966;28;20185;-78
2021/10/15 07:57:31;;;;;;;22.63;16.07;;;5.50;99.90;;;;;;5036419;28;20216;-78
2021/10/15 07:59:57;;;;;;;23.27;15.13;;;5.60;99.90;;;;;;5035790;28;20171;-78
2021/10/15 08:02:25;;;;;;;23.33;15.57;;;5.70;99.90;;;;;;5034178;28;20225;-79
2021/10/15 08:04:51;;;;;;;23.53;15.83;;;5.60;99.90;;;;;;5036326;28;20186;-78
2021/10/15 08:07:16;;;;;;;23.60;16.07;;;5.70;99.90;;;;;;5033118;28;20248;-79
2021/10/15 08:09:42;;;;;;;24.10;16.83;;;5.80;99.90;;;;;;5035037;28;20178;-79
2021/10/15 08:12:08;;;;;;;27.67;17.47;;;5.90;99.90;;;;;;5034017;28;20187;-78
2021/10/15 08:14:33;;;;;;;23.27;16.40;;;5.90;99.90;;;;;;5032280;28;20574;-78
2021/10/15 08:16:59;;;;;;;26.17;16.97;;;5.90;99.90;;;;;;5030833;28;20261;-77
2021/10/15 08:19:25;;;;;;;25.80;17.57;;;5.90;99.90;;;;;;5032401;28;20226;-77
2021/10/15 08:21:50;;;;;;;26.07;17.20;;;5.90;99.90;;;;;;5030918;28;20646;-78
2021/10/15 08:24:16;;;;;;;25.97;17.30;;;6.10;99.90;;;;;;5032382;28;20189;-78
2021/10/15 08:26:42;;;;;;;26.77;18.23;;;6.20;99.90;;;;;;5036292;28;20185;-78
2021/10/15 08:29:08;;;;;;;22.47;16.20;;;6.20;99.90;;;;;;5034512;28;20284;-78
2021/10/15 08:31:34;;;;;;;21.73;15.57;;;6.30;99.90;;;;;;5033662;28;20191;-78
2021/10/15 08:34:02;;;;;;;19.83;15.40;;;6.40;99.90;;;;;;5033776;28;20209;-78
2021/10/15 08:36:28;;;;;;;18.43;14.83;;;6.40;99.90;;;;;;5031196;28;20174;-78
2021/10/15 08:38:53;;;;;;;18.87;15.73;;;6.50;99.90;;;;;;5034823;28;20228;-78
2021/10/15 08:41:23;;;;;;;20.23;15.23;;;6.40;99.90;;;;;;5034439;28;20174;-78
2021/10/15 08:43:55;;;;;;;17.67;14.33;;;6.50;99.90;;;;;;5034832;28;20245;-78
2021/10/15 08:46:22;;;;;;;17.90;14.60;;;6.60;99.90;;;;;;5033776;28;20174;-78
2021/10/15 08:48:48;;;;;;;18.50;15.17;;;6.70;99.90;;;;;;5034642;28;20218;-78
2021/10/15 08:51:14;;;;;;;21.13;15.17;;;6.80;99.90;;;;;;5035538;28;20194;-79
2021/10/15 08:54:00;;;;;;;17.90;14.57;;;6.80;99.90;;;;;;5034828;28;20541;-77
2021/10/15 08:56:35;;;;;;;19.00;14.90;;;6.90;99.90;;;;;;5037951;28;20203;-78
2021/10/15 08:59:03;;;;;;;16.47;14.70;;;7.00;99.90;;;;;;5039100;28;20203;-78
2021/10/15 09:01:50;;;;;;;17.27;14.57;;;7.10;99.90;;;;;;5036011;28;20180;-78
2021/10/15 09:04:19;;;;;;;15.57;13.93;;;7.10;99.90;;;;;;5035391;28;20216;-79
2021/10/15 09:06:49;;;;;;;18.37;14.33;;;7.20;99.90;;;;;;5036777;28;20575;-78
2021/10/15 09:09:27;;;;;;;18.40;14.90;;;7.30;99.90;;;;;;5024135;28;20212;-79
2021/10/15 09:12:10;;;;;;;21.20;13.57;;;7.30;99.90;;;;;;5042153;28;20181;-78
2021/10/15 09:14:37;;;;;;;18.10;15.37;;;7.40;99.90;;;;;;5037372;28;20225;-78
2021/10/15 09:17:12;;;;;;;17.43;13.97;;;7.60;99.90;;;;;;5037234;28;20174;-78
2021/10/15 09:19:43;;;;;;;16.67;14.13;;;7.60;99.90;;;;;;5025869;28;20697;-78
2021/10/15 09:22:12;;;;;;;19.00;14.20;;;7.60;99.90;;;;;;5037989;28;20190;-78
2021/10/15 09:24:53;;;;;;;17.97;13.63;;;7.70;99.90;;;;;;5036447;28;20187;-78
2021/10/15 09:27:36;;;;;;;16.77;13.23;;;7.90;99.90;;;;;;5038095;28;20174;-78
2021/10/15 09:30:08;;;;;;;14.17;12.43;;;8.00;99.90;;;;;;5037436;28;20552;-78
2021/10/15 09:32:39;;;;;;;13.67;12.07;;;8.10;99.90;;;;;;5037602;28;20289;-78
2021/10/15 09:35:07;;;;;;;14.27;12.77;;;8.30;99.90;;;;;;5030148;28;20258;-78
2021/10/15 09:37:38;;;;;;;15.70;12.80;;;8.40;99.90;;;;;;5037299;28;20195;-78
2021/10/15 09:40:06;;;;;;;15.63;12.93;;;8.50;99.90;;;;;;5035510;28;20186;-78
2021/10/15 09:42:33;;;;;;;13.87;12.47;;;8.60;99.90;;;;;;5037469;28;20182;-78
2021/10/15 09:45:20;;;;;;;14.93;12.80;;;8.70;99.90;;;;;;5038538;28;20181;-78
2021/10/15 09:47:47;;;;;;;14.87;13.37;;;8.70;99.90;;;;;;5036034;28;20210;-78
2021/10/15 09:50:16;;;;;;;16.50;13.23;;;8.80;99.90;;;;;;5024827;28;20559;-79
2021/10/15 09:52:55;;;;;;;13.07;11.77;;;8.90;99.90;;;;;;5037668;28;20544;-78
2021/10/15 09:55:31;;;;;;;14.73;12.40;;;8.90;99.90;;;;;;5037631;28;20163;-79
2021/10/15 09:58:19;;;;;;;13.43;11.93;;;9.10;99.90;;;;;;5039733;28;20186;-78
2021/10/15 10:00:50;;;;;;;14.27;12.10;;;9.10;99.90;;;;;;5038144;28;20170;-78
2021/10/15 10:03:17;;;;;;;13.27;11.67;;;9.10;99.90;;;;;;5038001;28;20243;-78
2021/10/15 10:05:43;;;;;;;13.57;12.17;;;9.20;99.90;;;;;;5037942;28;20175;-79
2021/10/15 10:08:12;;;;;;;12.77;11.57;;;9.20;99.90;;;;;;5037287;28;20222;-79
2021/10/15 10:10:39;;;;;;;11.93;10.63;;;9.40;99.90;;;;;;5034885;28;20184;-79
2021/10/15 10:13:07;;;;;;;13.90;11.63;;;9.50;99.90;;;;;;5035104;28;20231;-78
2021/10/15 10:15:35;;;;;;;13.20;11.73;;;9.60;99.90;;;;;;5037279;28;20200;-78
2021/10/15 10:18:20;;;;;;;12.67;11.23;;;9.70;99.90;;;;;;5034606;28;20674;-79
2021/10/15 10:20:53;;;;;;;12.13;10.97;;;9.80;99.90;;;;;;5031270;28;20591;-79
2021/10/15 10:23:30;;;;;;;13.60;11.37;;;9.80;99.90;;;;;;5037900;28;20215;-79
2021/10/15 10:26:01;;;;;;;12.00;10.70;;;10.00;99.90;;;;;;5034599;28;20175;-79
2021/10/15 10:28:27;;;;;;;14.80;11.30;;;;;;;;;;5036800;28;20224;-79
2021/10/15 10:31:02;;;;;;;13.93;11.40;;;10.30;99.90;;;;;;5036478;28;20187;-79
2021/10/15 10:33:29;;;;;;;13.83;11.27;;;10.40;99.90;;;;;;5028349;28;20200;-79
2021/10/15 10:36:08;;;;;;;13.87;12.40;;;10.50;99.90;;;;;;5030443;28;20181;-78
2021/10/15 10:38:34;;;;;;;17.10;13.50;;;10.60;99.90;;;;;;5028013;28;20561;-79
2021/10/15 10:41:00;;;;;;;13.67;11.30;;;10.70;99.90;;;;;;5037827;28;20186;-79
2021/10/15 10:43:45;;;;;;;13.67;11.03;;;10.70;99.90;;;;;;5037959;28;20184;-79
2021/10/15 10:46:11;;;;;;;13.37;11.33;;;11.00;99.90;;;;;;5033395;28;20182;-80
2021/10/15 10:48:49;;;;;;;11.90;10.70;;;11.00;99.90;;;;;;5037508;28;20231;-78
2021/10/15 10:51:17;;;;;;;11.60;10.40;;;11.20;99.90;;;;;;5036902;28;20318;-79
2021/10/15 10:54:04;;;;;;;10.83;9.57;;;11.30;99.90;;;;;;5032769;28;20258;-80
2021/10/15 10:56:39;;;;;;;11.43;10.23;;;11.40;99.90;;;;;;5030977;28;20181;-80
2021/10/15 11:01:53;;;;;;;12.67;11.23;;;11.70;99.90;;;;;;5036787;28;20191;-80
2021/10/15 11:04:33;;;;;;;12.03;9.40;;;11.80;99.90;;;;;;5036548;28;20203;-80
2021/10/15 11:07:20;;;;;;;9.83;8.93;;;11.90;99.90;;;;;;5036834;28;20182;-79
2021/10/15 11:09:50;;;;;;;9.57;8.67;;;12.00;99.90;;;;;;5038064;28;20188;-79
2021/10/15 11:12:27;;;;;;;10.40;9.50;;;12.10;99.90;;;;;;5038661;28;20681;-80
2021/10/15 11:15:13;;;;;;;11.23;8.70;;;12.30;99.90;;;;;;5041108;28;20197;-80
2021/10/15 11:17:41;;;;;;;10.73;9.63;;;12.50;99.90;;;;;;5040680;28;20272;-80
2021/10/15 11:20:07;;;;;;;10.27;9.17;;;12.50;99.90;;;;;;5038983;28;20178;-80
2021/10/15 11:22:34;;;;;;;10.43;9.43;;;12.60;99.90;;;;;;5038499;28;20646;-80
2021/10/15 11:24:59;;;;;;;9.80;8.80;;;12.70;99.90;;;;;;5040262;28;20183;-80
2021/10/15 11:27:25;;;;;;;9.10;8.20;;;12.70;99.90;;;;;;5038371;28;20242;-79
2021/10/15 11:29:57;;;;;;;9.03;8.23;;;12.80;99.90;;;;;;5038273;28;20186;-80
2021/10/15 11:32:41;;;;;;;8.97;8.07;;;12.90;99.90;;;;;;5037416;28;20670;-80
2021/10/15 11:35:10;;;;;;;9.30;8.50;;;12.90;99.90;;;;;;5036217;28;20185;-79
2021/10/15 11:37:50;;;;;;;9.57;8.67;;;12.90;99.90;;;;;;5036492;28;20206;-78
2021/10/15 11:40:25;;;;;;;10.17;8.90;;;12.90;99.90;;;;;;5033947;28;20669;-79
2021/10/15 11:42:51;;;;;;;8.90;8.10;;;13.00;99.90;;;;;;5030451;28;20206;-80
2021/10/15 11:45:30;;;;;;;10.23;8.43;;;13.10;99.90;;;;;;5029478;28;20182;-80
2021/10/15 11:48:00;;;;;;;9.80;8.83;;;13.10;99.90;;;;;;5027662;28;20216;-79
2021/10/15 11:50:43;;;;;;;10.30;8.67;;;13.10;99.90;;;;;;5031415;28;20186;-80
2021/10/15 11:53:10;;;;;;;10.43;9.37;;;13.10;99.90;;;;;;5032208;28;20209;-80
2021/10/15 11:55:38;;;;;;;9.60;8.70;;;13.10;99.90;;;;;;5028045;28;20190;-79
2021/10/15 11:58:43;;;;;;;9.80;8.83;;;13.30;99.90;;;;;;5031243;28;20202;-80
2021/10/15 12:01:27;;;;;;;9.33;8.47;;;13.30;99.90;;;;;;5001118;28;20194;-80
2021/10/15 12:04:04;;;;;;;8.03;7.33;;;13.40;99.90;;;;;;5031510;28;20182;-80
2021/10/15 12:06:45;;;;;;;9.30;8.40;;;13.40;99.90;;;;;;5031289;28;20188;-79
2021/10/15 12:09:11;;;;;;;9.47;8.43;;;13.50;99.90;;;;;;5030993;28;20205;-81
2021/10/15 12:11:38;;;;;;;9.23;7.97;;;13.60;99.90;;;;;;5031000;28;20175;-80
2021/10/15 12:14:11;;;;;;;11.17;9.50;;;13.60;99.90;;;;;;5033144;28;20201;-80
2021/10/15 12:16:58;;;;;;;11.83;8.60;;;13.60;99.90;;;;;;5034907;28;20245;-80
2021/10/15 12:19:31;;;;;;;10.33;8.93;;;13.70;99.90;;;;;;5032413;28;20222;-81
2021/10/15 12:21:56;;;;;;;8.50;7.57;;;13.80;99.90;;;;;;5029610;28;20286;-80
2021/10/15 12:24:30;;;;;;;8.40;7.60;;;13.80;99.90;;;;;;5032571;28;20457;-81
2021/10/15 12:27:07;;;;;;;9.17;8.20;;;14.00;99.90;;;;;;5031164;28;20182;-80
2021/10/15 12:29:35;;;;;;;9.20;8.40;;;14.00;99.90;;;;;;5032037;28;20209;-79
2021/10/15 12:32:26;;;;;;;8.20;7.40;;;14.20;99.90;;;;;;5031715;28;20602;-80
2021/10/15 12:35:18;;;;;;;8.77;7.87;;;14.00;99.90;;;;;;5032777;28;20670;-80
2021/10/15 12:37:50;;;;;;;8.70;7.80;;;14.10;99.90;;;;;;5032855;28;20221;-80
2021/10/15 12:40:31;;;;;;;8.67;7.77;;;14.20;99.90;;;;;;5039482;28;20210;-80
2021/10/15 12:43:04;;;;;;;8.47;6.90;;;14.20;99.90;;;;;;5036490;28;20178;-80
2021/10/15 12:45:30;;;;;;;9.03;7.37;;;14.20;99.90;;;;;;5042320;28;20205;-80
2021/10/15 12:48:00;;;;;;;8.57;7.63;;;14.20;99.90;;;;;;5041116;28;20213;-80
2021/10/15 12:50:28;;;;;;;8.33;7.53;;;14.30;99.90;;;;;;5040725;28;20555;-80
2021/10/15 12:52:53;;;;;;;8.50;7.70;;;14.30;99.90;;;;;;5042544;28;20174;-84
2021/10/15 12:55:19;;;;;;;8.60;7.80;;;14.30;99.90;;;;;;5045157;28;20555;-85
2021/10/15 12:57:46;;;;;;;8.93;8.03;;;14.30;99.90;;;;;;5045166;28;20242;-84
2021/10/15 13:00:23;;;;;;;7.47;6.77;;;14.30;99.90;;;;;;5045556;28;20170;-85
2021/10/15 13:03:04;;;;;;;8.77;7.47;;;14.30;99.90;;;;;;5045873;28;20178;-85
2021/10/15 13:05:31;;;;;;;9.90;8.90;;;14.20;99.90;;;;;;5047715;28;20170;-85
2021/10/15 13:07:57;;;;;;;7.67;6.97;;;14.20;99.90;;;;;;5047509;28;20201;-85
2021/10/15 13:10:24;;;;;;;7.57;6.87;;;14.20;99.90;;;;;;5047221;28;20178;-85